sensor_id;sensor_type;location;lat;lon;timestamp;P1;durP1;ratioP1;P2;durP2;ratioP2
17618;SDS011;8928;51.678;6.074;2022-09-30T00:00:09;29.67;;;14.80;;
17618;SDS011;8928;51.678;6.074;2022-09-30T00:02:56;26.10;;;15.33;;
17618;SDS011;8928;51.678;6.074;2022-09-30T00:05:43;27.83;;;15.10;;
17618;SDS011;8928;51.678;6.074;2022-09-30T00:08:30;32.13;;;15.40;;
17618;SDS011;8928;51.678;6.074;2022-09-30T00:11:20;29.53;;;15.33;;
17618;SDS011;8928;51.678;6.074;2022-09-30T00:14:11;31.17;;;15.37;;
17618;SDS011;8928;51.678;6.074;2022-09-30T00:17:00;27.30;;;15.03;;
17618;SDS011;8928;51.678;6.074;2022-09-30T00:19:49;32.30;;;15.60;;
17618;SDS011;8928;51.678;6.074;2022-09-30T00:22:36;30.07;;;15.93;;
17618;SDS011;8928;51.678;6.074;2022-09-30T00:25:24;26.53;;;15.73;;
17618;SDS011;8928;51.678;6.074;2022-09-30T00:28:12;27.80;;;16.23;;
17618;SDS011;8928;51.678;6.074;2022-09-30T00:30:59;24.30;;;14.73;;
17618;SDS011;8928;51.678;6.074;2022-09-30T00:33:49;32.73;;;15.90;;
17618;SDS011;8928;51.678;6.074;2022-09-30T00:36:51;30.83;;;16.30;;
17618;SDS011;8928;51.678;6.074;2022-09-30T00:39:39;26.50;;;15.20;;
17618;SDS011;8928;51.678;6.074;2022-09-30T00:42:27;30.90;;;15.50;;
17618;SDS011;8928;51.678;6.074;2022-09-30T00:45:17;29.13;;;14.83;;
17618;SDS011;8928;51.678;6.074;2022-09-30T00:48:06;27.73;;;14.97;;
17618;SDS011;8928;51.678;6.074;2022-09-30T00:50:56;33.47;;;15.87;;
17618;SDS011;8928;51.678;6.074;2022-09-30T00:53:44;29.07;;;15.77;;
17618;SDS011;8928;51.678;6.074;2022-09-30T00:56:37;27.00;;;14.73;;
17618;SDS011;8928;51.678;6.074;2022-09-30T00:59:28;26.53;;;14.70;;
17618;SDS011;8928;51.678;6.074;2022-09-30T01:02:19;27.30;;;14.53;;
17618;SDS011;8928;51.678;6.074;2022-09-30T01:05:07;26.67;;;13.67;;
17618;SDS011;8928;51.678;6.074;2022-09-30T01:07:56;22.93;;;12.77;;
17618;SDS011;8928;51.678;6.074;2022-09-30T01:10:45;24.37;;;13.90;;
17618;SDS011;8928;51.678;6.074;2022-09-30T01:13:32;28.90;;;14.67;;
17618;SDS011;8928;51.678;6.074;2022-09-30T01:16:24;29.47;;;13.53;;
17618;SDS011;8928;51.678;6.074;2022-09-30T01:19:40;24.90;;;14.60;;
17618;SDS011;8928;51.678;6.074;2022-09-30T01:22:50;25.73;;;13.93;;
17618;SDS011;8928;51.678;6.074;2022-09-30T01:26:01;27.60;;;13.97;;
17618;SDS011;8928;51.678;6.074;2022-09-30T01:29:12;26.87;;;14.13;;
17618;SDS011;8928;51.678;6.074;2022-09-30T01:32:29;25.80;;;14.63;;
17618;SDS011;8928;51.678;6.074;2022-09-30T01:35:34;30.83;;;15.53;;
17618;SDS011;8928;51.678;6.074;2022-09-30T01:38:28;25.23;;;14.67;;
17618;SDS011;8928;51.678;6.074;2022-09-30T01:41:24;23.63;;;14.13;;
17618;SDS011;8928;51.678;6.074;2022-09-30T01:44:18;28.60;;;13.90;;
17618;SDS011;8928;51.678;6.074;2022-09-30T01:47:16;25.47;;;14.60;;
17618;SDS011;8928;51.678;6.074;2022-09-30T01:50:13;26.50;;;15.53;;
17618;SDS011;8928;51.678;6.074;2022-09-30T01:53:05;27.43;;;15.53;;
17618;SDS011;8928;51.678;6.074;2022-09-30T01:55:59;28.83;;;15.50;;
17618;SDS011;8928;51.678;6.074;2022-09-30T01:58:49;30.67;;;15.50;;
17618;SDS011;8928;51.678;6.074;2022-09-30T02:01:43;24.23;;;14.73;;
17618;SDS011;8928;51.678;6.074;2022-09-30T02:04:35;31.33;;;14.53;;
17618;SDS011;8928;51.678;6.074;2022-09-30T02:07:29;24.73;;;13.93;;
17618;SDS011;8928;51.678;6.074;2022-09-30T02:10:21;23.67;;;13.73;;
17618;SDS011;8928;51.678;6.074;2022-09-30T02:13:12;25.03;;;13.83;;
17618;SDS011;8928;51.678;6.074;2022-09-30T02:16:04;29.77;;;13.87;;
17618;SDS011;8928;51.678;6.074;2022-09-30T02:18:58;24.57;;;14.47;;
17618;SDS011;8928;51.678;6.074;2022-09-30T02:21:51;27.80;;;14.43;;
17618;SDS011;8928;51.678;6.074;2022-09-30T02:24:44;23.77;;;14.20;;
17618;SDS011;8928;51.678;6.074;2022-09-30T02:27:38;24.40;;;13.93;;
17618;SDS011;8928;51.678;6.074;2022-09-30T02:30:30;25.13;;;14.33;;
17618;SDS011;8928;51.678;6.074;2022-09-30T02:33:21;28.70;;;14.47;;
17618;SDS011;8928;51.678;6.074;2022-09-30T02:36:14;28.50;;;14.73;;
17618;SDS011;8928;51.678;6.074;2022-09-30T02:39:05;24.17;;;14.50;;
17618;SDS011;8928;51.678;6.074;2022-09-30T02:41:59;29.83;;;14.73;;
17618;SDS011;8928;51.678;6.074;2022-09-30T02:44:53;28.00;;;14.27;;
17618;SDS011;8928;51.678;6.074;2022-09-30T02:47:47;25.40;;;14.73;;
17618;SDS011;8928;51.678;6.074;2022-09-30T02:50:49;28.13;;;14.17;;
17618;SDS011;8928;51.678;6.074;2022-09-30T02:53:39;28.77;;;14.20;;
17618;SDS011;8928;51.678;6.074;2022-09-30T02:56:34;29.50;;;15.60;;
17618;SDS011;8928;51.678;6.074;2022-09-30T02:59:33;26.77;;;14.73;;
17618;SDS011;8928;51.678;6.074;2022-09-30T03:02:20;27.17;;;14.73;;
17618;SDS011;8928;51.678;6.074;2022-09-30T03:05:07;32.83;;;15.53;;
17618;SDS011;8928;51.678;6.074;2022-09-30T03:07:55;30.10;;;15.37;;
17618;SDS011;8928;51.678;6.074;2022-09-30T03:10:43;28.20;;;15.33;;
17618;SDS011;8928;51.678;6.074;2022-09-30T03:13:53;27.60;;;15.60;;
17618;SDS011;8928;51.678;6.074;2022-09-30T03:17:08;27.70;;;15.43;;
17618;SDS011;8928;51.678;6.074;2022-09-30T03:20:09;30.90;;;17.37;;
17618;SDS011;8928;51.678;6.074;2022-09-30T03:23:10;33.83;;;18.83;;
17618;SDS011;8928;51.678;6.074;2022-09-30T03:26:07;32.97;;;17.27;;
17618;SDS011;8928;51.678;6.074;2022-09-30T03:29:03;36.23;;;17.33;;
17618;SDS011;8928;51.678;6.074;2022-09-30T03:32:00;30.17;;;16.70;;
17618;SDS011;8928;51.678;6.074;2022-09-30T03:34:59;30.67;;;17.17;;
17618;SDS011;8928;51.678;6.074;2022-09-30T03:37:51;29.90;;;17.23;;
17618;SDS011;8928;51.678;6.074;2022-09-30T03:40:48;31.67;;;16.27;;
17618;SDS011;8928;51.678;6.074;2022-09-30T03:43:43;34.03;;;17.43;;
17618;SDS011;8928;51.678;6.074;2022-09-30T03:46:35;34.50;;;17.80;;
17618;SDS011;8928;51.678;6.074;2022-09-30T03:49:29;36.30;;;18.67;;
17618;SDS011;8928;51.678;6.074;2022-09-30T03:52:20;33.77;;;18.37;;
17618;SDS011;8928;51.678;6.074;2022-09-30T03:55:10;38.93;;;18.40;;
17618;SDS011;8928;51.678;6.074;2022-09-30T03:57:57;34.60;;;18.40;;
17618;SDS011;8928;51.678;6.074;2022-09-30T04:00:46;31.17;;;18.00;;
17618;SDS011;8928;51.678;6.074;2022-09-30T04:03:34;33.93;;;17.87;;
17618;SDS011;8928;51.678;6.074;2022-09-30T04:06:23;33.77;;;17.83;;
17618;SDS011;8928;51.678;6.074;2022-09-30T04:09:10;36.33;;;18.47;;
17618;SDS011;8928;51.678;6.074;2022-09-30T04:11:57;29.57;;;17.03;;
17618;SDS011;8928;51.678;6.074;2022-09-30T04:14:44;38.30;;;17.43;;
17618;SDS011;8928;51.678;6.074;2022-09-30T04:17:32;35.33;;;18.57;;
17618;SDS011;8928;51.678;6.074;2022-09-30T04:20:19;32.30;;;18.20;;
17618;SDS011;8928;51.678;6.074;2022-09-30T04:23:10;31.97;;;17.40;;
17618;SDS011;8928;51.678;6.074;2022-09-30T04:25:57;32.77;;;17.47;;
17618;SDS011;8928;51.678;6.074;2022-09-30T04:28:44;34.37;;;18.40;;
17618;SDS011;8928;51.678;6.074;2022-09-30T04:31:31;34.43;;;17.10;;
17618;SDS011;8928;51.678;6.074;2022-09-30T04:34:18;33.87;;;16.60;;
17618;SDS011;8928;51.678;6.074;2022-09-30T04:37:05;31.40;;;16.80;;
17618;SDS011;8928;51.678;6.074;2022-09-30T04:39:54;28.37;;;15.73;;
17618;SDS011;8928;51.678;6.074;2022-09-30T04:42:42;30.80;;;15.90;;
17618;SDS011;8928;51.678;6.074;2022-09-30T04:45:29;29.63;;;16.63;;
17618;SDS011;8928;51.678;6.074;2022-09-30T04:48:16;31.43;;;16.57;;
17618;SDS011;8928;51.678;6.074;2022-09-30T04:51:05;36.70;;;17.77;;
17618;SDS011;8928;51.678;6.074;2022-09-30T04:53:52;29.03;;;17.37;;
17618;SDS011;8928;51.678;6.074;2022-09-30T04:56:40;35.97;;;17.77;;
17618;SDS011;8928;51.678;6.074;2022-09-30T04:59:27;31.77;;;17.90;;
17618;SDS011;8928;51.678;6.074;2022-09-30T05:02:15;33.67;;;18.30;;
17618;SDS011;8928;51.678;6.074;2022-09-30T05:05:02;31.20;;;17.00;;
17618;SDS011;8928;51.678;6.074;2022-09-30T05:07:49;33.40;;;19.03;;
17618;SDS011;8928;51.678;6.074;2022-09-30T05:10:36;35.57;;;18.50;;
17618;SDS011;8928;51.678;6.074;2022-09-30T05:13:28;31.03;;;17.63;;
17618;SDS011;8928;51.678;6.074;2022-09-30T05:16:17;32.70;;;17.47;;
17618;SDS011;8928;51.678;6.074;2022-09-30T05:19:06;40.23;;;18.40;;
17618;SDS011;8928;51.678;6.074;2022-09-30T05:21:53;33.97;;;19.27;;
17618;SDS011;8928;51.678;6.074;2022-09-30T05:24:40;34.50;;;18.73;;
17618;SDS011;8928;51.678;6.074;2022-09-30T05:27:27;41.67;;;19.40;;
17618;SDS011;8928;51.678;6.074;2022-09-30T05:30:15;36.00;;;20.00;;
17618;SDS011;8928;51.678;6.074;2022-09-30T05:33:03;39.07;;;19.10;;
17618;SDS011;8928;51.678;6.074;2022-09-30T05:35:51;38.63;;;19.13;;
17618;SDS011;8928;51.678;6.074;2022-09-30T05:38:38;35.87;;;18.53;;
17618;SDS011;8928;51.678;6.074;2022-09-30T05:41:25;40.07;;;19.93;;
17618;SDS011;8928;51.678;6.074;2022-09-30T05:44:12;37.87;;;20.43;;
17618;SDS011;8928;51.678;6.074;2022-09-30T05:47:00;36.43;;;20.00;;
17618;SDS011;8928;51.678;6.074;2022-09-30T05:49:47;39.50;;;20.50;;
17618;SDS011;8928;51.678;6.074;2022-09-30T05:52:34;40.17;;;20.93;;
17618;SDS011;8928;51.678;6.074;2022-09-30T05:55:21;41.40;;;21.57;;
17618;SDS011;8928;51.678;6.074;2022-09-30T05:58:10;35.23;;;20.03;;
17618;SDS011;8928;51.678;6.074;2022-09-30T06:01:01;42.17;;;20.30;;
17618;SDS011;8928;51.678;6.074;2022-09-30T06:03:52;42.17;;;19.70;;
17618;SDS011;8928;51.678;6.074;2022-09-30T06:06:39;40.27;;;20.67;;
17618;SDS011;8928;51.678;6.074;2022-09-30T06:09:26;41.63;;;20.50;;
17618;SDS011;8928;51.678;6.074;2022-09-30T06:12:13;43.83;;;22.17;;
17618;SDS011;8928;51.678;6.074;2022-09-30T06:15:00;42.23;;;21.37;;
17618;SDS011;8928;51.678;6.074;2022-09-30T06:17:50;43.70;;;22.17;;
17618;SDS011;8928;51.678;6.074;2022-09-30T06:20:39;42.47;;;23.43;;
17618;SDS011;8928;51.678;6.074;2022-09-30T06:23:26;47.93;;;23.40;;
17618;SDS011;8928;51.678;6.074;2022-09-30T06:26:14;42.53;;;23.47;;
17618;SDS011;8928;51.678;6.074;2022-09-30T06:29:01;45.63;;;23.53;;
17618;SDS011;8928;51.678;6.074;2022-09-30T06:31:48;48.47;;;25.10;;
17618;SDS011;8928;51.678;6.074;2022-09-30T06:34:35;43.77;;;23.67;;
17618;SDS011;8928;51.678;6.074;2022-09-30T06:37:24;51.13;;;24.90;;
17618;SDS011;8928;51.678;6.074;2022-09-30T06:40:11;46.63;;;24.97;;
17618;SDS011;8928;51.678;6.074;2022-09-30T06:42:58;48.87;;;26.00;;
17618;SDS011;8928;51.678;6.074;2022-09-30T06:45:46;52.00;;;26.83;;
17618;SDS011;8928;51.678;6.074;2022-09-30T06:48:35;53.00;;;27.10;;
17618;SDS011;8928;51.678;6.074;2022-09-30T06:51:22;52.70;;;26.50;;
17618;SDS011;8928;51.678;6.074;2022-09-30T06:54:11;51.80;;;26.17;;
17618;SDS011;8928;51.678;6.074;2022-09-30T06:56:59;50.73;;;27.50;;
17618;SDS011;8928;51.678;6.074;2022-09-30T06:59:46;52.20;;;28.57;;
17618;SDS011;8928;51.678;6.074;2022-09-30T07:02:33;59.13;;;29.00;;
17618;SDS011;8928;51.678;6.074;2022-09-30T07:05:21;56.90;;;29.10;;
17618;SDS011;8928;51.678;6.074;2022-09-30T07:08:10;57.87;;;29.37;;
17618;SDS011;8928;51.678;6.074;2022-09-30T07:10:58;56.10;;;30.87;;
17618;SDS011;8928;51.678;6.074;2022-09-30T07:13:46;53.73;;;29.80;;
17618;SDS011;8928;51.678;6.074;2022-09-30T07:16:34;57.07;;;30.77;;
17618;SDS011;8928;51.678;6.074;2022-09-30T07:19:21;61.73;;;31.83;;
17618;SDS011;8928;51.678;6.074;2022-09-30T07:22:08;60.30;;;33.03;;
17618;SDS011;8928;51.678;6.074;2022-09-30T07:25:14;63.17;;;32.40;;
17618;SDS011;8928;51.678;6.074;2022-09-30T07:28:03;60.83;;;32.03;;
17618;SDS011;8928;51.678;6.074;2022-09-30T07:30:50;61.47;;;32.53;;
17618;SDS011;8928;51.678;6.074;2022-09-30T07:33:40;61.23;;;34.10;;
17618;SDS011;8928;51.678;6.074;2022-09-30T07:36:27;72.43;;;35.50;;
17618;SDS011;8928;51.678;6.074;2022-09-30T07:39:15;72.77;;;36.93;;
17618;SDS011;8928;51.678;6.074;2022-09-30T07:42:03;74.00;;;36.73;;
17618;SDS011;8928;51.678;6.074;2022-09-30T07:44:51;77.73;;;36.40;;
17618;SDS011;8928;51.678;6.074;2022-09-30T07:47:38;80.50;;;39.47;;
17618;SDS011;8928;51.678;6.074;2022-09-30T07:50:25;78.10;;;39.67;;
17618;SDS011;8928;51.678;6.074;2022-09-30T07:53:12;78.90;;;39.47;;
17618;SDS011;8928;51.678;6.074;2022-09-30T07:56:01;81.17;;;40.80;;
17618;SDS011;8928;51.678;6.074;2022-09-30T07:58:52;86.10;;;42.40;;
17618;SDS011;8928;51.678;6.074;2022-09-30T08:01:41;84.30;;;41.57;;
17618;SDS011;8928;51.678;6.074;2022-09-30T08:04:28;90.60;;;42.73;;
17618;SDS011;8928;51.678;6.074;2022-09-30T08:07:16;84.07;;;42.90;;
17618;SDS011;8928;51.678;6.074;2022-09-30T08:10:04;88.47;;;43.53;;
17618;SDS011;8928;51.678;6.074;2022-09-30T08:12:52;84.67;;;44.03;;
17618;SDS011;8928;51.678;6.074;2022-09-30T08:15:39;83.60;;;43.77;;
17618;SDS011;8928;51.678;6.074;2022-09-30T08:18:27;81.80;;;43.73;;
17618;SDS011;8928;51.678;6.074;2022-09-30T08:21:15;80.40;;;41.97;;
17618;SDS011;8928;51.678;6.074;2022-09-30T08:24:02;80.23;;;42.60;;
17618;SDS011;8928;51.678;6.074;2022-09-30T08:26:50;79.50;;;43.40;;
17618;SDS011;8928;51.678;6.074;2022-09-30T08:29:37;78.33;;;43.07;;
17618;SDS011;8928;51.678;6.074;2022-09-30T08:32:24;79.37;;;42.30;;
17618;SDS011;8928;51.678;6.074;2022-09-30T08:35:16;76.80;;;41.97;;
17618;SDS011;8928;51.678;6.074;2022-09-30T08:38:03;79.27;;;44.40;;
17618;SDS011;8928;51.678;6.074;2022-09-30T08:40:52;77.63;;;43.50;;
17618;SDS011;8928;51.678;6.074;2022-09-30T08:43:49;79.80;;;44.40;;
17618;SDS011;8928;51.678;6.074;2022-09-30T08:46:44;74.10;;;42.30;;
17618;SDS011;8928;51.678;6.074;2022-09-30T08:49:41;70.77;;;41.93;;
17618;SDS011;8928;51.678;6.074;2022-09-30T08:52:37;79.73;;;43.53;;
17618;SDS011;8928;51.678;6.074;2022-09-30T08:55:28;77.07;;;44.07;;
17618;SDS011;8928;51.678;6.074;2022-09-30T08:58:22;71.57;;;42.13;;
17618;SDS011;8928;51.678;6.074;2022-09-30T09:01:14;60.73;;;39.10;;
17618;SDS011;8928;51.678;6.074;2022-09-30T09:04:05;64.07;;;39.63;;
17618;SDS011;8928;51.678;6.074;2022-09-30T09:06:55;61.63;;;38.50;;
17618;SDS011;8928;51.678;6.074;2022-09-30T09:09:54;52.60;;;35.33;;
17618;SDS011;8928;51.678;6.074;2022-09-30T09:12:50;54.83;;;36.27;;
17618;SDS011;8928;51.678;6.074;2022-09-30T09:15:46;53.63;;;34.37;;
17618;SDS011;8928;51.678;6.074;2022-09-30T09:18:44;53.50;;;32.73;;
17618;SDS011;8928;51.678;6.074;2022-09-30T09:21:48;53.20;;;34.70;;
17618;SDS011;8928;51.678;6.074;2022-09-30T09:24:39;50.00;;;33.00;;
17618;SDS011;8928;51.678;6.074;2022-09-30T09:27:34;48.40;;;32.73;;
17618;SDS011;8928;51.678;6.074;2022-09-30T09:30:27;51.40;;;32.17;;
17618;SDS011;8928;51.678;6.074;2022-09-30T09:33:19;48.33;;;31.17;;
17618;SDS011;8928;51.678;6.074;2022-09-30T09:36:14;46.80;;;30.93;;
17618;SDS011;8928;51.678;6.074;2022-09-30T09:39:15;43.47;;;30.13;;
17618;SDS011;8928;51.678;6.074;2022-09-30T09:42:18;46.50;;;30.53;;
17618;SDS011;8928;51.678;6.074;2022-09-30T09:45:20;47.27;;;31.30;;
17618;SDS011;8928;51.678;6.074;2022-09-30T09:48:13;45.23;;;30.33;;
17618;SDS011;8928;51.678;6.074;2022-09-30T09:51:02;47.03;;;31.27;;
17618;SDS011;8928;51.678;6.074;2022-09-30T09:53:58;50.60;;;30.80;;
17618;SDS011;8928;51.678;6.074;2022-09-30T09:59:17;42.60;;;30.00;;
17618;SDS011;8928;51.678;6.074;2022-09-30T10:02:15;41.10;;;27.93;;
17618;SDS011;8928;51.678;6.074;2022-09-30T10:05:15;36.77;;;26.23;;
17618;SDS011;8928;51.678;6.074;2022-09-30T10:08:13;38.67;;;26.43;;
17618;SDS011;8928;51.678;6.074;2022-09-30T10:11:03;36.50;;;25.23;;
17618;SDS011;8928;51.678;6.074;2022-09-30T10:13:52;34.67;;;24.70;;
17618;SDS011;8928;51.678;6.074;2022-09-30T10:16:43;31.73;;;22.37;;
17618;SDS011;8928;51.678;6.074;2022-09-30T10:19:32;33.77;;;23.77;;
17618;SDS011;8928;51.678;6.074;2022-09-30T10:22:23;33.10;;;23.23;;
17618;SDS011;8928;51.678;6.074;2022-09-30T10:25:18;36.37;;;22.13;;
17618;SDS011;8928;51.678;6.074;2022-09-30T10:28:18;31.60;;;22.70;;
17618;SDS011;8928;51.678;6.074;2022-09-30T10:31:10;29.63;;;21.27;;
17618;SDS011;8928;51.678;6.074;2022-09-30T10:34:10;35.17;;;21.03;;
17618;SDS011;8928;51.678;6.074;2022-09-30T10:37:07;25.17;;;18.97;;
17618;SDS011;8928;51.678;6.074;2022-09-30T10:39:57;25.53;;;18.60;;
17618;SDS011;8928;51.678;6.074;2022-09-30T10:42:47;25.67;;;18.80;;
17618;SDS011;8928;51.678;6.074;2022-09-30T10:45:35;24.60;;;18.80;;
17618;SDS011;8928;51.678;6.074;2022-09-30T10:48:25;26.70;;;18.63;;
17618;SDS011;8928;51.678;6.074;2022-09-30T10:51:21;25.87;;;16.63;;
17618;SDS011;8928;51.678;6.074;2022-09-30T10:54:31;24.20;;;17.50;;
17618;SDS011;8928;51.678;6.074;2022-09-30T10:57:22;24.37;;;16.93;;
17618;SDS011;8928;51.678;6.074;2022-09-30T11:00:13;20.13;;;14.73;;
17618;SDS011;8928;51.678;6.074;2022-09-30T11:03:04;25.83;;;15.57;;
17618;SDS011;8928;51.678;6.074;2022-09-30T11:05:57;21.33;;;16.47;;
17618;SDS011;8928;51.678;6.074;2022-09-30T11:08:46;19.97;;;15.40;;
17618;SDS011;8928;51.678;6.074;2022-09-30T11:11:40;20.70;;;14.50;;
17618;SDS011;8928;51.678;6.074;2022-09-30T11:14:32;19.50;;;13.85;;
17618;SDS011;8928;51.678;6.074;2022-09-30T11:17:26;16.87;;;12.70;;
17618;SDS011;8928;51.678;6.074;2022-09-30T11:20:18;21.07;;;13.30;;
17618;SDS011;8928;51.678;6.074;2022-09-30T11:23:10;17.97;;;12.57;;
17618;SDS011;8928;51.678;6.074;2022-09-30T11:26:06;18.37;;;11.93;;
17618;SDS011;8928;51.678;6.074;2022-09-30T11:29:05;19.75;;;12.23;;
17618;SDS011;8928;51.678;6.074;2022-09-30T11:32:04;18.55;;;12.18;;
17618;SDS011;8928;51.678;6.074;2022-09-30T11:34:59;16.30;;;12.18;;
17618;SDS011;8928;51.678;6.074;2022-09-30T11:37:59;15.20;;;11.82;;
17618;SDS011;8928;51.678;6.074;2022-09-30T11:40:55;16.63;;;11.77;;
17618;SDS011;8928;51.678;6.074;2022-09-30T11:43:51;16.95;;;12.15;;
17618;SDS011;8928;51.678;6.074;2022-09-30T11:46:53;15.15;;;11.00;;
17618;SDS011;8928;51.678;6.074;2022-09-30T11:50:04;14.32;;;10.50;;
17618;SDS011;8928;51.678;6.074;2022-09-30T11:53:08;19.17;;;11.48;;
17618;SDS011;8928;51.678;6.074;2022-09-30T11:56:08;14.05;;;9.98;;
17618;SDS011;8928;51.678;6.074;2022-09-30T11:59:04;13.73;;;9.18;;
17618;SDS011;8928;51.678;6.074;2022-09-30T12:02:10;14.15;;;8.98;;
17618;SDS011;8928;51.678;6.074;2022-09-30T12:05:06;11.13;;;8.48;;
17618;SDS011;8928;51.678;6.074;2022-09-30T12:07:59;13.38;;;8.48;;
17618;SDS011;8928;51.678;6.074;2022-09-30T12:10:53;15.65;;;8.50;;
17618;SDS011;8928;51.678;6.074;2022-09-30T12:13:44;13.05;;;8.27;;
17618;SDS011;8928;51.678;6.074;2022-09-30T12:16:36;13.85;;;9.10;;
17618;SDS011;8928;51.678;6.074;2022-09-30T12:19:25;14.25;;;8.77;;
17618;SDS011;8928;51.678;6.074;2022-09-30T12:22:19;11.93;;;8.43;;
17618;SDS011;8928;51.678;6.074;2022-09-30T12:25:11;12.75;;;8.90;;
17618;SDS011;8928;51.678;6.074;2022-09-30T12:28:01;10.82;;;7.07;;
17618;SDS011;8928;51.678;6.074;2022-09-30T12:31:29;12.68;;;6.85;;
17618;SDS011;8928;51.678;6.074;2022-09-30T12:34:29;10.32;;;6.82;;
17618;SDS011;8928;51.678;6.074;2022-09-30T12:37:35;11.55;;;6.20;;
17618;SDS011;8928;51.678;6.074;2022-09-30T12:40:35;6.75;;;5.03;;
17618;SDS011;8928;51.678;6.074;2022-09-30T12:47:00;7.90;;;5.22;;
17618;SDS011;8928;51.678;6.074;2022-09-30T12:49:55;7.32;;;4.75;;
17618;SDS011;8928;51.678;6.074;2022-09-30T12:52:45;8.73;;;4.60;;
17618;SDS011;8928;51.678;6.074;2022-09-30T12:55:36;7.13;;;4.32;;
17618;SDS011;8928;51.678;6.074;2022-09-30T12:58:26;7.85;;;4.13;;
17618;SDS011;8928;51.678;6.074;2022-09-30T13:01:20;8.10;;;3.58;;
17618;SDS011;8928;51.678;6.074;2022-09-30T13:04:13;7.28;;;3.30;;
17618;SDS011;8928;51.678;6.074;2022-09-30T13:07:15;5.63;;;3.35;;
17618;SDS011;8928;51.678;6.074;2022-09-30T13:13:18;8.48;;;2.95;;
17618;SDS011;8928;51.678;6.074;2022-09-30T13:16:08;6.00;;;2.70;;
17618;SDS011;8928;51.678;6.074;2022-09-30T13:18:59;8.05;;;2.83;;
17618;SDS011;8928;51.678;6.074;2022-09-30T13:21:47;7.85;;;2.97;;
17618;SDS011;8928;51.678;6.074;2022-09-30T13:27:51;4.68;;;2.38;;
17618;SDS011;8928;51.678;6.074;2022-09-30T13:34:07;5.05;;;2.08;;
17618;SDS011;8928;51.678;6.074;2022-09-30T13:36:57;5.13;;;2.38;;
17618;SDS011;8928;51.678;6.074;2022-09-30T13:39:46;3.15;;;1.90;;
17618;SDS011;8928;51.678;6.074;2022-09-30T13:42:38;3.28;;;1.80;;
17618;SDS011;8928;51.678;6.074;2022-09-30T13:45:32;2.97;;;1.77;;
17618;SDS011;8928;51.678;6.074;2022-09-30T13:48:25;4.28;;;1.80;;
17618;SDS011;8928;51.678;6.074;2022-09-30T13:51:15;6.13;;;2.00;;
17618;SDS011;8928;51.678;6.074;2022-09-30T13:54:07;5.30;;;2.03;;
17618;SDS011;8928;51.678;6.074;2022-09-30T13:57:00;3.50;;;2.10;;
17618;SDS011;8928;51.678;6.074;2022-09-30T13:59:51;4.05;;;2.33;;
17618;SDS011;8928;51.678;6.074;2022-09-30T14:02:57;5.43;;;2.40;;
17618;SDS011;8928;51.678;6.074;2022-09-30T14:06:09;4.43;;;2.50;;
17618;SDS011;8928;51.678;6.074;2022-09-30T14:09:17;4.45;;;2.15;;
17618;SDS011;8928;51.678;6.074;2022-09-30T14:12:17;3.78;;;2.08;;
17618;SDS011;8928;51.678;6.074;2022-09-30T14:15:20;5.55;;;2.20;;
17618;SDS011;8928;51.678;6.074;2022-09-30T14:18:32;5.97;;;2.17;;
17618;SDS011;8928;51.678;6.074;2022-09-30T14:21:34;5.70;;;2.10;;
17618;SDS011;8928;51.678;6.074;2022-09-30T14:24:24;4.70;;;2.33;;
17618;SDS011;8928;51.678;6.074;2022-09-30T14:27:16;3.97;;;2.17;;
17618;SDS011;8928;51.678;6.074;2022-09-30T14:30:16;6.30;;;2.35;;
17618;SDS011;8928;51.678;6.074;2022-09-30T14:33:08;8.52;;;2.40;;
17618;SDS011;8928;51.678;6.074;2022-09-30T14:35:59;3.30;;;1.70;;
17618;SDS011;8928;51.678;6.074;2022-09-30T14:38:50;4.28;;;1.70;;
17618;SDS011;8928;51.678;6.074;2022-09-30T14:41:39;3.90;;;1.80;;
17618;SDS011;8928;51.678;6.074;2022-09-30T14:44:32;3.38;;;1.55;;
17618;SDS011;8928;51.678;6.074;2022-09-30T14:47:20;2.72;;;1.50;;
17618;SDS011;8928;51.678;6.074;2022-09-30T14:50:08;3.60;;;1.38;;
17618;SDS011;8928;51.678;6.074;2022-09-30T14:52:58;3.83;;;1.50;;
17618;SDS011;8928;51.678;6.074;2022-09-30T14:55:47;2.45;;;1.40;;
17618;SDS011;8928;51.678;6.074;2022-09-30T14:58:37;4.80;;;1.63;;
17618;SDS011;8928;51.678;6.074;2022-09-30T15:01:27;9.82;;;1.80;;
17618;SDS011;8928;51.678;6.074;2022-09-30T15:04:19;2.65;;;1.50;;
17618;SDS011;8928;51.678;6.074;2022-09-30T15:07:10;4.10;;;1.50;;
17618;SDS011;8928;51.678;6.074;2022-09-30T15:10:00;3.58;;;1.20;;
17618;SDS011;8928;51.678;6.074;2022-09-30T15:12:48;5.18;;;1.75;;
17618;SDS011;8928;51.678;6.074;2022-09-30T15:15:37;9.82;;;1.60;;
17618;SDS011;8928;51.678;6.074;2022-09-30T15:18:29;4.18;;;1.50;;
17618;SDS011;8928;51.678;6.074;2022-09-30T15:21:18;3.60;;;1.30;;
17618;SDS011;8928;51.678;6.074;2022-09-30T15:24:06;2.78;;;1.10;;
17618;SDS011;8928;51.678;6.074;2022-09-30T15:26:57;6.25;;;1.20;;
17618;SDS011;8928;51.678;6.074;2022-09-30T15:29:53;3.75;;;1.48;;
17618;SDS011;8928;51.678;6.074;2022-09-30T15:32:41;2.78;;;1.20;;
17618;SDS011;8928;51.678;6.074;2022-09-30T15:35:28;4.60;;;1.30;;
17618;SDS011;8928;51.678;6.074;2022-09-30T15:38:18;3.00;;;1.55;;
17618;SDS011;8928;51.678;6.074;2022-09-30T15:41:09;6.13;;;1.25;;
17618;SDS011;8928;51.678;6.074;2022-09-30T15:43:58;5.30;;;1.30;;
17618;SDS011;8928;51.678;6.074;2022-09-30T15:47:01;5.40;;;1.25;;
17618;SDS011;8928;51.678;6.074;2022-09-30T15:49:49;5.38;;;1.27;;
17618;SDS011;8928;51.678;6.074;2022-09-30T15:52:37;3.15;;;1.20;;
17618;SDS011;8928;51.678;6.074;2022-09-30T15:55:35;5.43;;;1.40;;
17618;SDS011;8928;51.678;6.074;2022-09-30T15:58:30;1.27;;;0.82;;
17618;SDS011;8928;51.678;6.074;2022-09-30T16:01:23;1.98;;;0.93;;
17618;SDS011;8928;51.678;6.074;2022-09-30T16:04:20;2.10;;;1.10;;
17618;SDS011;8928;51.678;6.074;2022-09-30T16:07:09;3.15;;;1.27;;
17618;SDS011;8928;51.678;6.074;2022-09-30T16:10:02;6.10;;;2.20;;
17618;SDS011;8928;51.678;6.074;2022-09-30T16:12:51;6.83;;;2.00;;
17618;SDS011;8928;51.678;6.074;2022-09-30T16:15:38;10.83;;;2.37;;
17618;SDS011;8928;51.678;6.074;2022-09-30T16:18:27;8.37;;;2.00;;
17618;SDS011;8928;51.678;6.074;2022-09-30T16:24:45;6.07;;;1.90;;
17618;SDS011;8928;51.678;6.074;2022-09-30T16:27:33;6.80;;;1.90;;
17618;SDS011;8928;51.678;6.074;2022-09-30T16:30:20;5.90;;;1.80;;
17618;SDS011;8928;51.678;6.074;2022-09-30T16:33:08;4.00;;;1.67;;
17618;SDS011;8928;51.678;6.074;2022-09-30T16:35:59;4.03;;;1.50;;
17618;SDS011;8928;51.678;6.074;2022-09-30T16:38:46;2.90;;;1.70;;
17618;SDS011;8928;51.678;6.074;2022-09-30T16:41:33;4.00;;;1.60;;
17618;SDS011;8928;51.678;6.074;2022-09-30T16:44:22;12.73;;;2.43;;
17618;SDS011;8928;51.678;6.074;2022-09-30T16:47:10;7.07;;;2.20;;
17618;SDS011;8928;51.678;6.074;2022-09-30T16:49:58;8.70;;;2.20;;
17618;SDS011;8928;51.678;6.074;2022-09-30T16:52:47;29.43;;;5.53;;
17618;SDS011;8928;51.678;6.074;2022-09-30T16:55:34;63.53;;;12.50;;
17618;SDS011;8928;51.678;6.074;2022-09-30T16:58:21;15.53;;;3.93;;
17618;SDS011;8928;51.678;6.074;2022-09-30T17:01:12;5.40;;;2.10;;
17618;SDS011;8928;51.678;6.074;2022-09-30T17:04:03;3.70;;;1.67;;
17618;SDS011;8928;51.678;6.074;2022-09-30T17:06:50;7.00;;;1.70;;
17618;SDS011;8928;51.678;6.074;2022-09-30T17:09:41;11.60;;;2.67;;
17618;SDS011;8928;51.678;6.074;2022-09-30T17:12:28;16.47;;;3.80;;
17618;SDS011;8928;51.678;6.074;2022-09-30T17:15:15;36.93;;;7.33;;
17618;SDS011;8928;51.678;6.074;2022-09-30T17:18:03;34.50;;;5.80;;
17618;SDS011;8928;51.678;6.074;2022-09-30T17:20:52;15.73;;;3.77;;
17618;SDS011;8928;51.678;6.074;2022-09-30T17:23:40;7.73;;;2.10;;
17618;SDS011;8928;51.678;6.074;2022-09-30T17:26:28;6.70;;;1.90;;